Koulamoutou, Gabon
Current Conditions -  °F | °C
As of 8:00 AM on Saturday 25 Oct 2014 (Local Time) from FCPP Reporting Station
Broken Clouds Broken Clouds  
Wind Chill: 79°   Ceiling: 2000
Heat Index: 82°   Visibility: 6mi
Dew Point: 73°   Wind: 9mph
Humidity: 83%   Direction: 160°SSE
Pressure: 29.88"   Gusts: NA
Location:  1.12°S, 12.5°E
Report Text: FCPP 250700Z 16008KT 120V200 9999 FEW010 BKN020 26/23 Q1012 NOSIG
Loading
Personal Weather Stations






























Interactive Weather Map
Tropical Storm Tracking
New forecast layout! Learn more

10-Day Weather Forecast

Advertisements
Track Severe Weather on mobile